sensor_id;sensor_type;location;lat;lon;timestamp;temperature;humidity
9768;DHT22;4923;52.520;13.494;2023-05-19T00:00:27;9.30;1.00
9768;DHT22;4923;52.520;13.494;2023-05-19T00:03:15;9.20;1.00
9768;DHT22;4923;52.520;13.494;2023-05-19T00:06:08;9.20;1.00
9768;DHT22;4923;52.520;13.494;2023-05-19T00:08:57;9.10;1.00
9768;DHT22;4923;52.520;13.494;2023-05-19T00:11:44;9.10;1.00
9768;DHT22;4923;52.520;13.494;2023-05-19T00:14:32;9.10;1.00
9768;DHT22;4923;52.520;13.494;2023-05-19T00:17:19;9.10;1.00
9768;DHT22;4923;52.520;13.494;2023-05-19T00:20:07;9.00;1.00
9768;DHT22;4923;52.520;13.494;2023-05-19T00:22:55;9.00;1.00
9768;DHT22;4923;52.520;13.494;2023-05-19T00:25:42;9.00;1.00
9768;DHT22;4923;52.520;13.494;2023-05-19T00:28:29;9.00;1.00
9768;DHT22;4923;52.520;13.494;2023-05-19T00:31:16;8.90;1.00
9768;DHT22;4923;52.520;13.494;2023-05-19T00:34:02;8.80;1.00
9768;DHT22;4923;52.520;13.494;2023-05-19T00:36:49;8.80;1.00
9768;DHT22;4923;52.520;13.494;2023-05-19T00:39:37;8.80;1.00
9768;DHT22;4923;52.520;13.494;2023-05-19T00:42:24;8.80;1.00
9768;DHT22;4923;52.520;13.494;2023-05-19T00:45:11;8.70;1.00
9768;DHT22;4923;52.520;13.494;2023-05-19T00:47:58;8.70;1.00
9768;DHT22;4923;52.520;13.494;2023-05-19T00:50:45;8.70;1.00
9768;DHT22;4923;52.520;13.494;2023-05-19T00:53:33;8.70;1.00
9768;DHT22;4923;52.520;13.494;2023-05-19T00:56:21;8.60;1.00
9768;DHT22;4923;52.520;13.494;2023-05-19T00:59:08;8.60;1.00
9768;DHT22;4923;52.520;13.494;2023-05-19T01:01:55;8.70;1.00
9768;DHT22;4923;52.520;13.494;2023-05-19T01:04:42;8.70;1.00
9768;DHT22;4923;52.520;13.494;2023-05-19T01:07:30;8.70;1.00
9768;DHT22;4923;52.520;13.494;2023-05-19T01:10:17;8.60;1.00
9768;DHT22;4923;52.520;13.494;2023-05-19T01:13:05;8.60;1.00
9768;DHT22;4923;52.520;13.494;2023-05-19T01:16:00;8.50;1.00
9768;DHT22;4923;52.520;13.494;2023-05-19T01:18:57;8.50;1.00
9768;DHT22;4923;52.520;13.494;2023-05-19T01:22:11;8.50;1.00
9768;DHT22;4923;52.520;13.494;2023-05-19T01:25:12;8.50;1.00
9768;DHT22;4923;52.520;13.494;2023-05-19T01:31:36;8.40;1.00
9768;DHT22;4923;52.520;13.494;2023-05-19T01:34:26;8.30;1.00
9768;DHT22;4923;52.520;13.494;2023-05-19T01:37:14;8.20;1.00
9768;DHT22;4923;52.520;13.494;2023-05-19T01:40:01;8.10;1.00
9768;DHT22;4923;52.520;13.494;2023-05-19T01:42:52;8.00;1.00
9768;DHT22;4923;52.520;13.494;2023-05-19T01:45:39;8.00;1.00
9768;DHT22;4923;52.520;13.494;2023-05-19T01:48:28;7.90;1.00
9768;DHT22;4923;52.520;13.494;2023-05-19T01:51:15;7.80;1.00
9768;DHT22;4923;52.520;13.494;2023-05-19T01:54:02;7.70;1.00
9768;DHT22;4923;52.520;13.494;2023-05-19T01:56:56;7.70;1.00
9768;DHT22;4923;52.520;13.494;2023-05-19T01:59:52;7.60;1.00
9768;DHT22;4923;52.520;13.494;2023-05-19T02:02:55;7.60;1.00
9768;DHT22;4923;52.520;13.494;2023-05-19T02:05:52;7.50;1.00
9768;DHT22;4923;52.520;13.494;2023-05-19T02:08:43;7.60;1.00
9768;DHT22;4923;52.520;13.494;2023-05-19T02:11:35;7.60;1.00
9768;DHT22;4923;52.520;13.494;2023-05-19T02:14:31;7.60;1.00
9768;DHT22;4923;52.520;13.494;2023-05-19T02:17:19;7.60;1.00
9768;DHT22;4923;52.520;13.494;2023-05-19T02:20:08;7.50;1.00
9768;DHT22;4923;52.520;13.494;2023-05-19T02:22:57;7.60;1.00
9768;DHT22;4923;52.520;13.494;2023-05-19T02:25:44;7.50;1.00
9768;DHT22;4923;52.520;13.494;2023-05-19T02:28:31;7.50;1.00
9768;DHT22;4923;52.520;13.494;2023-05-19T02:31:18;7.50;1.00
9768;DHT22;4923;52.520;13.494;2023-05-19T02:34:05;7.60;1.00
9768;DHT22;4923;52.520;13.494;2023-05-19T02:36:53;7.50;1.00
9768;DHT22;4923;52.520;13.494;2023-05-19T02:39:43;7.60;1.00
9768;DHT22;4923;52.520;13.494;2023-05-19T02:42:30;7.70;1.00
9768;DHT22;4923;52.520;13.494;2023-05-19T02:45:16;7.70;1.00
9768;DHT22;4923;52.520;13.494;2023-05-19T02:48:04;7.80;1.00
9768;DHT22;4923;52.520;13.494;2023-05-19T02:50:50;7.80;1.00
9768;DHT22;4923;52.520;13.494;2023-05-19T02:53:37;7.90;1.00
9768;DHT22;4923;52.520;13.494;2023-05-19T02:56:25;7.90;1.00
9768;DHT22;4923;52.520;13.494;2023-05-19T02:59:13;7.90;1.00
9768;DHT22;4923;52.520;13.494;2023-05-19T03:02:01;7.90;1.00
9768;DHT22;4923;52.520;13.494;2023-05-19T03:04:47;7.90;1.00
9768;DHT22;4923;52.520;13.494;2023-05-19T03:07:34;7.90;1.00
9768;DHT22;4923;52.520;13.494;2023-05-19T03:10:22;7.90;1.00
9768;DHT22;4923;52.520;13.494;2023-05-19T03:13:10;7.90;1.00
9768;DHT22;4923;52.520;13.494;2023-05-19T03:15:57;7.80;1.00
9768;DHT22;4923;52.520;13.494;2023-05-19T03:18:44;7.90;1.00
9768;DHT22;4923;52.520;13.494;2023-05-19T03:21:31;7.90;1.00
9768;DHT22;4923;52.520;13.494;2023-05-19T03:24:19;7.80;1.00
9768;DHT22;4923;52.520;13.494;2023-05-19T03:27:05;7.80;1.00
9768;DHT22;4923;52.520;13.494;2023-05-19T03:29:53;7.80;1.00
9768;DHT22;4923;52.520;13.494;2023-05-19T03:32:40;7.80;1.00
9768;DHT22;4923;52.520;13.494;2023-05-19T03:35:27;7.90;1.00
9768;DHT22;4923;52.520;13.494;2023-05-19T03:38:14;7.90;1.00
9768;DHT22;4923;52.520;13.494;2023-05-19T03:41:01;7.90;1.00
9768;DHT22;4923;52.520;13.494;2023-05-19T03:43:48;8.00;1.00
9768;DHT22;4923;52.520;13.494;2023-05-19T03:46:36;8.00;1.00
9768;DHT22;4923;52.520;13.494;2023-05-19T03:49:23;8.10;1.00
9768;DHT22;4923;52.520;13.494;2023-05-19T03:52:10;8.20;1.00
9768;DHT22;4923;52.520;13.494;2023-05-19T03:54:57;8.30;1.00
9768;DHT22;4923;52.520;13.494;2023-05-19T03:57:44;8.40;1.00
9768;DHT22;4923;52.520;13.494;2023-05-19T04:00:31;8.50;1.00
9768;DHT22;4923;52.520;13.494;2023-05-19T04:03:19;8.60;1.00
9768;DHT22;4923;52.520;13.494;2023-05-19T04:06:06;8.80;1.00
9768;DHT22;4923;52.520;13.494;2023-05-19T04:08:53;9.00;1.00
9768;DHT22;4923;52.520;13.494;2023-05-19T04:11:40;9.20;1.00
9768;DHT22;4923;52.520;13.494;2023-05-19T04:14:27;9.60;1.00
9768;DHT22;4923;52.520;13.494;2023-05-19T04:17:14;9.90;1.00
9768;DHT22;4923;52.520;13.494;2023-05-19T04:20:02;10.10;1.00
9768;DHT22;4923;52.520;13.494;2023-05-19T04:22:50;10.30;1.00
9768;DHT22;4923;52.520;13.494;2023-05-19T04:25:37;10.40;1.00
9768;DHT22;4923;52.520;13.494;2023-05-19T04:28:25;10.50;1.00
9768;DHT22;4923;52.520;13.494;2023-05-19T04:31:12;10.70;1.00
9768;DHT22;4923;52.520;13.494;2023-05-19T04:33:59;10.80;1.00
9768;DHT22;4923;52.520;13.494;2023-05-19T04:36:47;10.80;1.00
9768;DHT22;4923;52.520;13.494;2023-05-19T04:39:34;11.00;1.00
9768;DHT22;4923;52.520;13.494;2023-05-19T04:42:23;11.10;1.00
9768;DHT22;4923;52.520;13.494;2023-05-19T04:45:10;11.10;1.00
9768;DHT22;4923;52.520;13.494;2023-05-19T04:47:58;11.30;1.00
9768;DHT22;4923;52.520;13.494;2023-05-19T04:50:45;11.40;1.00
9768;DHT22;4923;52.520;13.494;2023-05-19T04:53:34;11.40;1.00
9768;DHT22;4923;52.520;13.494;2023-05-19T04:56:21;11.30;1.00
9768;DHT22;4923;52.520;13.494;2023-05-19T04:59:08;11.40;1.00
9768;DHT22;4923;52.520;13.494;2023-05-19T05:01:55;11.30;1.00
9768;DHT22;4923;52.520;13.494;2023-05-19T05:04:42;11.40;1.00
9768;DHT22;4923;52.520;13.494;2023-05-19T05:07:31;11.30;1.00
9768;DHT22;4923;52.520;13.494;2023-05-19T05:10:19;11.30;1.00
9768;DHT22;4923;52.520;13.494;2023-05-19T05:13:07;11.30;1.00
9768;DHT22;4923;52.520;13.494;2023-05-19T05:15:54;11.20;1.00
9768;DHT22;4923;52.520;13.494;2023-05-19T05:18:42;11.30;1.00
9768;DHT22;4923;52.520;13.494;2023-05-19T05:21:29;11.50;1.00
9768;DHT22;4923;52.520;13.494;2023-05-19T05:24:16;11.60;1.00
9768;DHT22;4923;52.520;13.494;2023-05-19T05:27:05;11.60;1.00
9768;DHT22;4923;52.520;13.494;2023-05-19T05:29:53;11.60;1.00
9768;DHT22;4923;52.520;13.494;2023-05-19T05:32:40;11.80;1.00
9768;DHT22;4923;52.520;13.494;2023-05-19T05:35:27;11.90;1.00
9768;DHT22;4923;52.520;13.494;2023-05-19T05:38:14;12.20;1.00
9768;DHT22;4923;52.520;13.494;2023-05-19T05:41:01;12.20;1.00
9768;DHT22;4923;52.520;13.494;2023-05-19T05:43:49;12.20;1.00
9768;DHT22;4923;52.520;13.494;2023-05-19T05:46:36;12.50;1.00
9768;DHT22;4923;52.520;13.494;2023-05-19T05:49:24;12.60;1.00
9768;DHT22;4923;52.520;13.494;2023-05-19T05:52:11;12.70;1.00
9768;DHT22;4923;52.520;13.494;2023-05-19T05:54:58;12.80;1.00
9768;DHT22;4923;52.520;13.494;2023-05-19T05:57:46;12.70;1.00
9768;DHT22;4923;52.520;13.494;2023-05-19T06:00:34;12.90;1.00
9768;DHT22;4923;52.520;13.494;2023-05-19T06:03:21;12.90;1.00
9768;DHT22;4923;52.520;13.494;2023-05-19T06:06:09;13.00;1.00
9768;DHT22;4923;52.520;13.494;2023-05-19T06:08:56;13.10;1.00
9768;DHT22;4923;52.520;13.494;2023-05-19T06:11:43;13.50;1.00
9768;DHT22;4923;52.520;13.494;2023-05-19T06:14:30;13.90;1.00
9768;DHT22;4923;52.520;13.494;2023-05-19T06:17:18;13.90;1.00
9768;DHT22;4923;52.520;13.494;2023-05-19T06:20:06;14.00;1.00
9768;DHT22;4923;52.520;13.494;2023-05-19T06:22:54;14.00;1.00
9768;DHT22;4923;52.520;13.494;2023-05-19T06:25:41;14.20;1.00
9768;DHT22;4923;52.520;13.494;2023-05-19T06:28:28;14.20;1.00
9768;DHT22;4923;52.520;13.494;2023-05-19T06:31:16;14.30;1.00
9768;DHT22;4923;52.520;13.494;2023-05-19T06:34:04;14.40;1.00
9768;DHT22;4923;52.520;13.494;2023-05-19T06:36:51;14.40;1.00
9768;DHT22;4923;52.520;13.494;2023-05-19T06:39:38;14.30;1.00
9768;DHT22;4923;52.520;13.494;2023-05-19T06:42:28;14.30;1.00
9768;DHT22;4923;52.520;13.494;2023-05-19T06:45:16;14.20;1.00
9768;DHT22;4923;52.520;13.494;2023-05-19T06:48:06;14.30;1.00
9768;DHT22;4923;52.520;13.494;2023-05-19T06:50:54;14.40;1.00
9768;DHT22;4923;52.520;13.494;2023-05-19T06:53:41;14.40;1.00
9768;DHT22;4923;52.520;13.494;2023-05-19T06:56:28;14.60;1.00
9768;DHT22;4923;52.520;13.494;2023-05-19T06:59:15;14.70;1.00
9768;DHT22;4923;52.520;13.494;2023-05-19T07:02:02;14.90;1.00
9768;DHT22;4923;52.520;13.494;2023-05-19T07:04:49;14.90;1.00
9768;DHT22;4923;52.520;13.494;2023-05-19T07:07:38;14.80;1.00
9768;DHT22;4923;52.520;13.494;2023-05-19T07:10:26;15.00;1.00
9768;DHT22;4923;52.520;13.494;2023-05-19T07:13:13;15.20;1.00
9768;DHT22;4923;52.520;13.494;2023-05-19T07:16:00;15.40;1.00
9768;DHT22;4923;52.520;13.494;2023-05-19T07:18:46;15.50;1.00
9768;DHT22;4923;52.520;13.494;2023-05-19T07:21:33;15.60;1.00
9768;DHT22;4923;52.520;13.494;2023-05-19T07:24:21;15.90;1.00
9768;DHT22;4923;52.520;13.494;2023-05-19T07:27:08;16.30;1.00
9768;DHT22;4923;52.520;13.494;2023-05-19T07:29:55;16.50;1.00
9768;DHT22;4923;52.520;13.494;2023-05-19T07:32:42;16.80;1.00
9768;DHT22;4923;52.520;13.494;2023-05-19T07:35:29;16.80;1.00
9768;DHT22;4923;52.520;13.494;2023-05-19T07:38:16;17.10;1.00
9768;DHT22;4923;52.520;13.494;2023-05-19T07:41:04;17.40;1.00
9768;DHT22;4923;52.520;13.494;2023-05-19T07:43:51;17.70;1.00
9768;DHT22;4923;52.520;13.494;2023-05-19T07:46:37;17.80;1.00
9768;DHT22;4923;52.520;13.494;2023-05-19T07:49:24;17.50;1.00
9768;DHT22;4923;52.520;13.494;2023-05-19T07:52:11;17.80;1.00
9768;DHT22;4923;52.520;13.494;2023-05-19T07:54:58;17.60;1.00
9768;DHT22;4923;52.520;13.494;2023-05-19T07:57:46;17.40;1.00
9768;DHT22;4923;52.520;13.494;2023-05-19T08:00:33;17.40;1.00
9768;DHT22;4923;52.520;13.494;2023-05-19T08:03:20;17.70;1.00
9768;DHT22;4923;52.520;13.494;2023-05-19T08:06:07;17.60;1.00
9768;DHT22;4923;52.520;13.494;2023-05-19T08:08:54;17.80;1.00
9768;DHT22;4923;52.520;13.494;2023-05-19T08:11:41;17.90;1.00
9768;DHT22;4923;52.520;13.494;2023-05-19T08:14:30;17.70;1.00
9768;DHT22;4923;52.520;13.494;2023-05-19T08:17:18;17.30;1.00
9768;DHT22;4923;52.520;13.494;2023-05-19T08:20:06;17.40;1.00
9768;DHT22;4923;52.520;13.494;2023-05-19T08:22:54;17.20;1.00
9768;DHT22;4923;52.520;13.494;2023-05-19T08:25:41;17.30;1.00
9768;DHT22;4923;52.520;13.494;2023-05-19T08:28:28;17.10;1.00
9768;DHT22;4923;52.520;13.494;2023-05-19T08:31:16;17.40;1.00
9768;DHT22;4923;52.520;13.494;2023-05-19T08:34:03;17.60;1.00
9768;DHT22;4923;52.520;13.494;2023-05-19T08:36:50;17.80;1.00
9768;DHT22;4923;52.520;13.494;2023-05-19T08:39:38;18.10;1.00
9768;DHT22;4923;52.520;13.494;2023-05-19T08:42:24;18.40;1.00
9768;DHT22;4923;52.520;13.494;2023-05-19T08:45:12;18.80;1.00
9768;DHT22;4923;52.520;13.494;2023-05-19T08:48:00;18.60;1.00
9768;DHT22;4923;52.520;13.494;2023-05-19T08:50:55;18.40;1.00
9768;DHT22;4923;52.520;13.494;2023-05-19T08:53:49;18.60;1.00
9768;DHT22;4923;52.520;13.494;2023-05-19T08:56:37;18.90;1.00
9768;DHT22;4923;52.520;13.494;2023-05-19T08:59:24;19.10;1.00
9768;DHT22;4923;52.520;13.494;2023-05-19T09:02:12;19.20;1.00
9768;DHT22;4923;52.520;13.494;2023-05-19T09:05:01;18.60;1.00
9768;DHT22;4923;52.520;13.494;2023-05-19T09:07:49;18.70;1.00
9768;DHT22;4923;52.520;13.494;2023-05-19T09:10:35;19.00;1.00
9768;DHT22;4923;52.520;13.494;2023-05-19T09:13:22;19.30;1.00
9768;DHT22;4923;52.520;13.494;2023-05-19T09:16:10;19.30;1.00
9768;DHT22;4923;52.520;13.494;2023-05-19T09:18:57;19.00;1.00
9768;DHT22;4923;52.520;13.494;2023-05-19T09:21:56;19.30;1.00
9768;DHT22;4923;52.520;13.494;2023-05-19T09:24:44;19.50;1.00
9768;DHT22;4923;52.520;13.494;2023-05-19T09:27:31;19.90;1.00
9768;DHT22;4923;52.520;13.494;2023-05-19T09:30:20;20.30;1.00
9768;DHT22;4923;52.520;13.494;2023-05-19T09:33:07;20.70;1.00
9768;DHT22;4923;52.520;13.494;2023-05-19T09:35:54;20.60;1.00
9768;DHT22;4923;52.520;13.494;2023-05-19T09:38:44;20.80;1.00
9768;DHT22;4923;52.520;13.494;2023-05-19T09:41:32;21.10;1.00
9768;DHT22;4923;52.520;13.494;2023-05-19T09:44:22;21.30;1.00
9768;DHT22;4923;52.520;13.494;2023-05-19T09:47:13;21.50;1.00
9768;DHT22;4923;52.520;13.494;2023-05-19T09:50:01;21.60;1.00
9768;DHT22;4923;52.520;13.494;2023-05-19T09:52:48;21.50;1.00
9768;DHT22;4923;52.520;13.494;2023-05-19T09:55:36;21.10;1.00
9768;DHT22;4923;52.520;13.494;2023-05-19T09:58:24;20.70;1.00
9768;DHT22;4923;52.520;13.494;2023-05-19T10:01:11;20.10;1.00
9768;DHT22;4923;52.520;13.494;2023-05-19T10:03:59;20.50;1.00
9768;DHT22;4923;52.520;13.494;2023-05-19T10:06:47;20.20;1.00
9768;DHT22;4923;52.520;13.494;2023-05-19T10:09:38;20.70;1.00
9768;DHT22;4923;52.520;13.494;2023-05-19T10:12:29;20.80;1.00
9768;DHT22;4923;52.520;13.494;2023-05-19T10:15:18;21.10;1.00
9768;DHT22;4923;52.520;13.494;2023-05-19T10:18:06;21.30;1.00
9768;DHT22;4923;52.520;13.494;2023-05-19T10:20:53;21.50;1.00
9768;DHT22;4923;52.520;13.494;2023-05-19T10:23:42;20.80;1.00
9768;DHT22;4923;52.520;13.494;2023-05-19T10:26:29;20.40;1.00
9768;DHT22;4923;52.520;13.494;2023-05-19T10:29:21;20.50;1.00
9768;DHT22;4923;52.520;13.494;2023-05-19T10:32:11;20.00;1.00
9768;DHT22;4923;52.520;13.494;2023-05-19T10:35:14;19.90;1.00
9768;DHT22;4923;52.520;13.494;2023-05-19T10:38:13;20.00;1.00
9768;DHT22;4923;52.520;13.494;2023-05-19T10:41:06;20.50;1.00
9768;DHT22;4923;52.520;13.494;2023-05-19T10:44:04;20.60;1.00
9768;DHT22;4923;52.520;13.494;2023-05-19T10:46:54;20.70;1.00
9768;DHT22;4923;52.520;13.494;2023-05-19T10:49:41;21.10;1.00
9768;DHT22;4923;52.520;13.494;2023-05-19T10:52:29;21.20;1.00
9768;DHT22;4923;52.520;13.494;2023-05-19T10:55:44;21.40;1.00
9768;DHT22;4923;52.520;13.494;2023-05-19T10:58:49;21.10;1.00
9768;DHT22;4923;52.520;13.494;2023-05-19T11:01:37;21.20;1.00
9768;DHT22;4923;52.520;13.494;2023-05-19T11:04:44;21.00;1.00
9768;DHT22;4923;52.520;13.494;2023-05-19T11:07:31;20.20;1.00
9768;DHT22;4923;52.520;13.494;2023-05-19T11:10:21;19.80;1.00
9768;DHT22;4923;52.520;13.494;2023-05-19T11:13:18;19.90;1.00
9768;DHT22;4923;52.520;13.494;2023-05-19T11:16:06;20.00;1.00
9768;DHT22;4923;52.520;13.494;2023-05-19T11:18:53;20.50;1.00
9768;DHT22;4923;52.520;13.494;2023-05-19T11:21:46;21.20;1.00
9768;DHT22;4923;52.520;13.494;2023-05-19T11:24:36;21.10;1.00
9768;DHT22;4923;52.520;13.494;2023-05-19T11:27:26;21.30;1.00
9768;DHT22;4923;52.520;13.494;2023-05-19T11:30:13;21.40;1.00
9768;DHT22;4923;52.520;13.494;2023-05-19T11:33:02;21.20;1.00
9768;DHT22;4923;52.520;13.494;2023-05-19T11:35:49;21.10;1.00
9768;DHT22;4923;52.520;13.494;2023-05-19T11:38:38;20.60;1.00
9768;DHT22;4923;52.520;13.494;2023-05-19T11:41:24;20.20;1.00
9768;DHT22;4923;52.520;13.494;2023-05-19T11:44:12;20.10;1.00
9768;DHT22;4923;52.520;13.494;2023-05-19T11:47:00;20.40;1.00
9768;DHT22;4923;52.520;13.494;2023-05-19T11:49:47;20.60;1.00
9768;DHT22;4923;52.520;13.494;2023-05-19T11:52:34;20.70;1.00
9768;DHT22;4923;52.520;13.494;2023-05-19T11:55:22;20.60;1.00
9768;DHT22;4923;52.520;13.494;2023-05-19T11:58:09;20.70;1.00
9768;DHT22;4923;52.520;13.494;2023-05-19T12:01:01;20.60;1.00
9768;DHT22;4923;52.520;13.494;2023-05-19T12:03:48;20.80;1.00
9768;DHT22;4923;52.520;13.494;2023-05-19T12:06:35;20.80;1.00
9768;DHT22;4923;52.520;13.494;2023-05-19T12:09:23;20.80;1.00
9768;DHT22;4923;52.520;13.494;2023-05-19T12:12:12;20.40;1.00
9768;DHT22;4923;52.520;13.494;2023-05-19T12:15:01;20.20;1.00
9768;DHT22;4923;52.520;13.494;2023-05-19T12:17:49;20.30;1.00
9768;DHT22;4923;52.520;13.494;2023-05-19T12:20:36;20.60;1.00
9768;DHT22;4923;52.520;13.494;2023-05-19T12:23:23;20.60;1.00
9768;DHT22;4923;52.520;13.494;2023-05-19T12:26:10;20.80;1.00
9768;DHT22;4923;52.520;13.494;2023-05-19T12:28:59;20.50;1.00
9768;DHT22;4923;52.520;13.494;2023-05-19T12:31:46;21.10;1.00
9768;DHT22;4923;52.520;13.494;2023-05-19T12:34:35;21.00;1.00
9768;DHT22;4923;52.520;13.494;2023-05-19T12:37:25;21.10;1.00
9768;DHT22;4923;52.520;13.494;2023-05-19T12:40:15;21.20;1.00
9768;DHT22;4923;52.520;13.494;2023-05-19T12:43:02;21.60;1.00
9768;DHT22;4923;52.520;13.494;2023-05-19T12:45:50;21.60;1.00
9768;DHT22;4923;52.520;13.494;2023-05-19T12:48:39;21.40;1.00
9768;DHT22;4923;52.520;13.494;2023-05-19T12:51:26;21.20;1.00
9768;DHT22;4923;52.520;13.494;2023-05-19T12:54:17;21.00;1.00
9768;DHT22;4923;52.520;13.494;2023-05-19T12:57:04;21.00;1.00
9768;DHT22;4923;52.520;13.494;2023-05-19T12:59:51;20.70;1.00
9768;DHT22;4923;52.520;13.494;2023-05-19T13:05:37;21.10;1.00
9768;DHT22;4923;52.520;13.494;2023-05-19T13:08:24;21.10;1.00
9768;DHT22;4923;52.520;13.494;2023-05-19T13:11:12;21.00;1.00
9768;DHT22;4923;52.520;13.494;2023-05-19T13:13:59;21.00;1.00
9768;DHT22;4923;52.520;13.494;2023-05-19T13:16:46;20.80;1.00
9768;DHT22;4923;52.520;13.494;2023-05-19T13:19:33;21.00;1.00
9768;DHT22;4923;52.520;13.494;2023-05-19T13:22:21;20.80;1.00
9768;DHT22;4923;52.520;13.494;2023-05-19T13:25:08;20.80;1.00
9768;DHT22;4923;52.520;13.494;2023-05-19T13:27:55;20.60;1.00
9768;DHT22;4923;52.520;13.494;2023-05-19T13:30:44;20.30;1.00
9768;DHT22;4923;52.520;13.494;2023-05-19T13:33:31;20.20;1.00
9768;DHT22;4923;52.520;13.494;2023-05-19T13:36:18;20.00;1.00
9768;DHT22;4923;52.520;13.494;2023-05-19T13:39:06;20.10;1.00
9768;DHT22;4923;52.520;13.494;2023-05-19T13:41:53;20.20;1.00
9768;DHT22;4923;52.520;13.494;2023-05-19T13:44:40;20.50;1.00
9768;DHT22;4923;52.520;13.494;2023-05-19T13:47:27;20.60;1.00
9768;DHT22;4923;52.520;13.494;2023-05-19T13:50:14;20.60;1.00
9768;DHT22;4923;52.520;13.494;2023-05-19T13:53:01;20.30;1.00
9768;DHT22;4923;52.520;13.494;2023-05-19T13:55:49;20.20;1.00
9768;DHT22;4923;52.520;13.494;2023-05-19T13:58:37;20.30;1.00
9768;DHT22;4923;52.520;13.494;2023-05-19T14:01:24;20.40;1.00
9768;DHT22;4923;52.520;13.494;2023-05-19T14:04:11;20.40;1.00
9768;DHT22;4923;52.520;13.494;2023-05-19T14:06:58;20.30;1.00
9768;DHT22;4923;52.520;13.494;2023-05-19T14:09:45;20.00;1.00
9768;DHT22;4923;52.520;13.494;2023-05-19T14:12:34;19.60;1.00
9768;DHT22;4923;52.520;13.494;2023-05-19T14:15:21;19.60;1.00
9768;DHT22;4923;52.520;13.494;2023-05-19T14:18:08;19.80;1.00
9768;DHT22;4923;52.520;13.494;2023-05-19T14:20:55;19.70;1.00
9768;DHT22;4923;52.520;13.494;2023-05-19T14:23:42;19.80;1.00
9768;DHT22;4923;52.520;13.494;2023-05-19T14:26:29;19.90;1.00
9768;DHT22;4923;52.520;13.494;2023-05-19T14:29:17;19.70;1.00
9768;DHT22;4923;52.520;13.494;2023-05-19T14:32:05;19.70;1.00
9768;DHT22;4923;52.520;13.494;2023-05-19T14:34:52;19.80;1.00
9768;DHT22;4923;52.520;13.494;2023-05-19T14:37:38;19.80;1.00
9768;DHT22;4923;52.520;13.494;2023-05-19T14:40:25;19.70;1.00
9768;DHT22;4923;52.520;13.494;2023-05-19T14:43:12;19.70;1.00
9768;DHT22;4923;52.520;13.494;2023-05-19T14:46:01;19.90;1.00
9768;DHT22;4923;52.520;13.494;2023-05-19T14:48:47;20.00;1.00
9768;DHT22;4923;52.520;13.494;2023-05-19T14:51:34;20.20;1.00
9768;DHT22;4923;52.520;13.494;2023-05-19T14:54:21;20.40;1.00
9768;DHT22;4923;52.520;13.494;2023-05-19T14:57:08;20.20;1.00
9768;DHT22;4923;52.520;13.494;2023-05-19T14:59:55;19.40;1.00
9768;DHT22;4923;52.520;13.494;2023-05-19T15:02:43;18.90;1.00
9768;DHT22;4923;52.520;13.494;2023-05-19T15:05:30;18.80;1.00
9768;DHT22;4923;52.520;13.494;2023-05-19T15:08:17;18.60;1.00
9768;DHT22;4923;52.520;13.494;2023-05-19T15:11:04;18.60;1.00
9768;DHT22;4923;52.520;13.494;2023-05-19T15:13:51;18.60;1.00
9768;DHT22;4923;52.520;13.494;2023-05-19T15:16:37;18.60;1.00
9768;DHT22;4923;52.520;13.494;2023-05-19T15:19:26;18.70;1.00
9768;DHT22;4923;52.520;13.494;2023-05-19T15:22:12;18.80;1.00
9768;DHT22;4923;52.520;13.494;2023-05-19T15:24:59;19.10;1.00
9768;DHT22;4923;52.520;13.494;2023-05-19T15:27:46;19.20;1.00
9768;DHT22;4923;52.520;13.494;2023-05-19T15:30:33;19.10;1.00
9768;DHT22;4923;52.520;13.494;2023-05-19T15:33:20;19.00;1.00
9768;DHT22;4923;52.520;13.494;2023-05-19T15:36:08;19.40;1.00
9768;DHT22;4923;52.520;13.494;2023-05-19T15:39:00;19.40;1.00
9768;DHT22;4923;52.520;13.494;2023-05-19T15:41:48;19.60;1.00
9768;DHT22;4923;52.520;13.494;2023-05-19T15:44:35;19.50;1.00
9768;DHT22;4923;52.520;13.494;2023-05-19T15:47:23;19.30;1.00
9768;DHT22;4923;52.520;13.494;2023-05-19T15:50:10;19.20;1.00
9768;DHT22;4923;52.520;13.494;2023-05-19T15:52:58;18.90;1.00
9768;DHT22;4923;52.520;13.494;2023-05-19T15:55:45;18.50;1.00
9768;DHT22;4923;52.520;13.494;2023-05-19T15:58:32;18.50;1.00
9768;DHT22;4923;52.520;13.494;2023-05-19T16:01:19;18.50;1.00
9768;DHT22;4923;52.520;13.494;2023-05-19T16:04:06;18.60;1.00
9768;DHT22;4923;52.520;13.494;2023-05-19T16:06:53;18.60;1.00
9768;DHT22;4923;52.520;13.494;2023-05-19T16:09:41;18.50;1.00
9768;DHT22;4923;52.520;13.494;2023-05-19T16:12:28;18.70;1.00
9768;DHT22;4923;52.520;13.494;2023-05-19T16:15:16;18.90;1.00
9768;DHT22;4923;52.520;13.494;2023-05-19T16:18:03;19.10;1.00
9768;DHT22;4923;52.520;13.494;2023-05-19T16:20:50;19.50;1.00
9768;DHT22;4923;52.520;13.494;2023-05-19T16:23:36;19.50;1.00
9768;DHT22;4923;52.520;13.494;2023-05-19T16:26:25;19.50;1.00
9768;DHT22;4923;52.520;13.494;2023-05-19T16:29:13;19.30;1.00
9768;DHT22;4923;52.520;13.494;2023-05-19T16:32:00;19.20;1.00
9768;DHT22;4923;52.520;13.494;2023-05-19T16:34:47;19.10;1.00
9768;DHT22;4923;52.520;13.494;2023-05-19T16:37:34;18.90;1.00
9768;DHT22;4923;52.520;13.494;2023-05-19T16:40:20;18.50;1.00
9768;DHT22;4923;52.520;13.494;2023-05-19T16:43:09;18.40;1.00
9768;DHT22;4923;52.520;13.494;2023-05-19T16:45:56;18.50;1.00
9768;DHT22;4923;52.520;13.494;2023-05-19T16:48:42;18.60;1.00
9768;DHT22;4923;52.520;13.494;2023-05-19T16:51:29;18.60;1.00
9768;DHT22;4923;52.520;13.494;2023-05-19T16:54:16;18.60;1.00
9768;DHT22;4923;52.520;13.494;2023-05-19T16:57:03;18.90;1.00
9768;DHT22;4923;52.520;13.494;2023-05-19T16:59:51;19.00;1.00
9768;DHT22;4923;52.520;13.494;2023-05-19T17:02:38;18.90;1.00
9768;DHT22;4923;52.520;13.494;2023-05-19T17:05:25;19.10;1.00
9768;DHT22;4923;52.520;13.494;2023-05-19T17:08:12;19.30;1.00
9768;DHT22;4923;52.520;13.494;2023-05-19T17:10:59;19.90;1.00
9768;DHT22;4923;52.520;13.494;2023-05-19T17:13:46;20.20;1.00
9768;DHT22;4923;52.520;13.494;2023-05-19T17:16:34;19.90;1.00
9768;DHT22;4923;52.520;13.494;2023-05-19T17:19:21;19.40;1.00
9768;DHT22;4923;52.520;13.494;2023-05-19T17:22:08;19.50;1.00
9768;DHT22;4923;52.520;13.494;2023-05-19T17:24:54;19.40;1.00
9768;DHT22;4923;52.520;13.494;2023-05-19T17:27:42;19.50;1.00
9768;DHT22;4923;52.520;13.494;2023-05-19T17:30:28;19.60;1.00
9768;DHT22;4923;52.520;13.494;2023-05-19T17:33:17;19.20;1.00
9768;DHT22;4923;52.520;13.494;2023-05-19T17:36:05;19.10;1.00
9768;DHT22;4923;52.520;13.494;2023-05-19T17:38:52;18.80;1.00
9768;DHT22;4923;52.520;13.494;2023-05-19T17:41:39;18.70;1.00
9768;DHT22;4923;52.520;13.494;2023-05-19T17:44:25;18.30;1.00
9768;DHT22;4923;52.520;13.494;2023-05-19T17:47:12;18.10;1.00
9768;DHT22;4923;52.520;13.494;2023-05-19T17:50:00;17.90;1.00
9768;DHT22;4923;52.520;13.494;2023-05-19T17:52:48;17.90;1.00
9768;DHT22;4923;52.520;13.494;2023-05-19T17:55:36;17.70;1.00
9768;DHT22;4923;52.520;13.494;2023-05-19T17:58:23;17.60;1.00
9768;DHT22;4923;52.520;13.494;2023-05-19T18:01:10;17.50;1.00
9768;DHT22;4923;52.520;13.494;2023-05-19T18:03:57;17.40;1.00
9768;DHT22;4923;52.520;13.494;2023-05-19T18:06:46;17.40;1.00
9768;DHT22;4923;52.520;13.494;2023-05-19T18:09:35;17.40;1.00
9768;DHT22;4923;52.520;13.494;2023-05-19T18:12:23;17.30;1.00
9768;DHT22;4923;52.520;13.494;2023-05-19T18:15:10;17.20;1.00
9768;DHT22;4923;52.520;13.494;2023-05-19T18:17:57;17.10;1.00
9768;DHT22;4923;52.520;13.494;2023-05-19T18:20:44;17.00;1.00
9768;DHT22;4923;52.520;13.494;2023-05-19T18:23:33;16.90;1.00
9768;DHT22;4923;52.520;13.494;2023-05-19T18:26:20;16.70;1.00